Time;durP1;ratioP1;P1;durP2;ratioP2;P2;SDS_P1;SDS_P2;PMS_P1;PMS_P2;Temp;Humidity;BMP_temperature;BMP_pressure;BME280_temperature;BME280_humidity;BME280_pressure;Samples;Min_cycle;Max_cycle;Signal;HPM_P1;HPM_P2
2021/07/24 00:00:57;;;;;;;3.47;2.53;;;14.20;99.90;;;;;;4951148;29;20184;-76
2021/07/24 00:03:23;;;;;;;3.20;1.73;;;14.20;99.90;;;;;;4950390;28;20232;-79
2021/07/24 00:05:49;;;;;;;7.05;2.20;;;14.10;99.90;;;;;;4950883;29;20177;-80
2021/07/24 00:08:15;;;;;;;2.30;2.10;;;14.10;99.90;;;;;;4949893;28;20268;-80
2021/07/24 00:10:40;;;;;;;2.45;1.92;;;14.10;99.90;;;;;;4951038;28;20233;-77
2021/07/24 00:13:06;;;;;;;3.38;1.95;;;14.10;99.90;;;;;;4950742;28;20177;-77
2021/07/24 00:15:32;;;;;;;2.13;1.90;;;14.20;99.90;;;;;;4949943;28;20173;-80
2021/07/24 00:17:58;;;;;;;3.10;2.00;;;14.10;99.90;;;;;;4951677;28;20185;-80
2021/07/24 00:20:24;;;;;;;2.65;2.10;;;14.20;99.90;;;;;;4951282;28;20228;-78
2021/07/24 00:22:49;;;;;;;1.92;1.70;;;14.20;99.90;;;;;;4951445;28;20361;-79
2021/07/24 00:25:16;;;;;;;2.47;2.05;;;14.30;99.90;;;;;;4951931;28;20244;-78
2021/07/24 00:27:41;;;;;;;2.55;1.90;;;14.20;99.90;;;;;;4950094;29;20185;-78
2021/07/24 00:30:07;;;;;;;3.10;2.20;;;14.10;99.90;;;;;;4951735;29;20212;-80
2021/07/24 00:32:33;;;;;;;1.95;1.58;;;14.00;99.90;;;;;;4949671;29;20190;-77
2021/07/24 00:35:00;;;;;;;1.90;1.67;;;13.90;99.90;;;;;;4951316;28;20244;-77
2021/07/24 00:37:25;;;;;;;2.15;1.83;;;13.80;99.90;;;;;;4951802;28;20182;-80
2021/07/24 00:39:51;;;;;;;2.10;1.90;;;13.70;99.90;;;;;;4949610;29;20185;-80
2021/07/24 00:42:22;;;;;;;3.28;2.03;;;13.70;99.90;;;;;;4951028;28;20190;-80
2021/07/24 00:44:50;;;;;;;2.28;1.90;;;13.70;99.90;;;;;;4950423;28;20276;-81
2021/07/24 00:47:28;;;;;;;2.70;1.75;;;13.60;99.90;;;;;;4950856;28;20277;-79
2021/07/24 00:49:57;;;;;;;3.50;2.28;;;13.60;99.90;;;;;;4950695;29;20356;-78
2021/07/24 00:52:23;;;;;;;2.83;2.15;;;13.60;99.90;;;;;;4950748;28;20181;-79
2021/07/24 00:54:48;;;;;;;2.67;1.92;;;13.60;99.90;;;;;;4951221;28;20205;-76
2021/07/24 00:57:15;;;;;;;2.35;1.92;;;13.70;99.90;;;;;;4949849;29;20324;-76
2021/07/24 00:59:41;;;;;;;2.70;1.80;;;13.70;99.90;;;;;;4951175;28;20548;-76
2021/07/24 01:02:07;;;;;;;2.55;1.75;;;13.70;99.90;;;;;;4951170;28;20189;-79
2021/07/24 01:04:33;;;;;;;2.10;1.70;;;13.70;99.90;;;;;;4949517;28;20229;-76
2021/07/24 01:07:02;;;;;;;2.90;2.03;;;13.60;99.90;;;;;;4949880;29;20240;-80
2021/07/24 01:09:28;;;;;;;4.53;2.75;;;13.60;99.90;;;;;;4951839;28;20699;-79
2021/07/24 01:11:53;;;;;;;2.20;1.70;;;13.50;99.90;;;;;;4950595;29;20190;-77
2021/07/24 01:14:19;;;;;;;2.05;1.80;;;13.50;99.90;;;;;;4953085;28;20201;-78
2021/07/24 01:16:45;;;;;;;4.72;1.92;;;13.40;99.90;;;;;;4954160;28;20192;-79
2021/07/24 01:19:15;;;;;;;3.45;2.17;;;13.40;99.90;;;;;;4953666;28;20188;-78
2021/07/24 01:21:41;;;;;;;2.80;2.47;;;13.40;99.90;;;;;;4955002;29;20192;-80
2021/07/24 01:24:06;;;;;;;2.65;2.22;;;13.40;99.90;;;;;;4959956;28;20305;-80
2021/07/24 01:26:36;;;;;;;2.55;1.77;;;13.40;99.90;;;;;;4953696;29;20185;-79
2021/07/24 01:29:03;;;;;;;3.65;2.05;;;13.30;99.90;;;;;;4954789;29;20602;-79
2021/07/24 01:31:29;;;;;;;2.45;1.77;;;13.40;99.90;;;;;;4969237;28;20671;-80
2021/07/24 01:33:54;;;;;;;2.10;1.80;;;13.40;99.90;;;;;;4954392;28;20240;-76
2021/07/24 01:36:20;;;;;;;3.28;2.20;;;13.40;99.90;;;;;;4955177;29;20240;-79
2021/07/24 01:38:46;;;;;;;3.33;1.75;;;13.40;99.90;;;;;;4954527;28;20182;-75
2021/07/24 01:41:12;;;;;;;3.75;2.30;;;13.30;99.90;;;;;;4955007;28;20241;-79
2021/07/24 01:43:39;;;;;;;2.05;1.80;;;13.20;99.90;;;;;;4954902;28;20197;-78
2021/07/24 01:46:06;;;;;;;1.90;1.45;;;13.20;99.90;;;;;;4954598;29;20208;-77
2021/07/24 01:48:42;;;;;;;3.38;2.53;;;13.10;99.90;;;;;;4952933;28;20182;-79
2021/07/24 01:53:57;;;;;;;2.95;2.10;;;13.20;99.90;;;;;;4954335;29;20215;-77
2021/07/24 01:56:27;;;;;;;2.72;2.13;;;13.30;99.90;;;;;;4955217;29;20182;-76
2021/07/24 01:58:53;;;;;;;3.70;1.92;;;13.30;99.90;;;;;;4953592;29;20261;-78
2021/07/24 02:01:21;;;;;;;2.90;2.00;;;13.20;99.90;;;;;;4954725;29;20231;-78
2021/07/24 02:03:54;;;;;;;3.50;2.25;;;13.20;99.90;;;;;;4953227;29;20232;-79
2021/07/24 02:06:20;;;;;;;2.60;1.65;;;13.20;99.90;;;;;;4950662;29;20194;-78
2021/07/24 02:08:48;;;;;;;2.30;1.83;;;13.10;99.90;;;;;;4952777;29;20633;-76
2021/07/24 02:11:14;;;;;;;2.70;1.95;;;13.20;99.90;;;;;;4954527;28;20194;-79
2021/07/24 02:13:40;;;;;;;2.97;1.73;;;13.20;99.90;;;;;;4953110;28;20224;-78
2021/07/24 02:16:06;;;;;;;2.35;2.15;;;13.10;99.90;;;;;;4954292;29;20185;-76
2021/07/24 02:18:33;;;;;;;3.95;2.22;;;13.20;99.90;;;;;;4954568;28;20182;-77
2021/07/24 02:21:01;;;;;;;3.97;2.30;;;13.20;99.90;;;;;;4953223;29;20177;-78
2021/07/24 02:23:27;;;;;;;2.80;2.10;;;13.20;99.90;;;;;;4953923;28;21300;-79
2021/07/24 02:25:53;;;;;;;2.92;2.10;;;13.10;99.90;;;;;;4952306;28;20688;-79
2021/07/24 02:28:19;;;;;;;6.13;2.90;;;13.10;99.90;;;;;;4953933;29;20202;-79
2021/07/24 02:30:45;;;;;;;3.55;2.20;;;13.10;99.90;;;;;;4953956;28;20284;-79
2021/07/24 02:33:10;;;;;;;3.15;2.45;;;13.00;99.90;;;;;;4952697;28;20671;-77
2021/07/24 02:35:36;;;;;;;3.00;2.17;;;13.00;99.90;;;;;;4954275;28;20216;-79
2021/07/24 02:38:02;;;;;;;3.97;2.58;;;13.00;99.90;;;;;;4953730;29;20182;-77
2021/07/24 02:40:28;;;;;;;2.90;2.03;;;13.10;99.90;;;;;;4953992;28;20186;-79
2021/07/24 02:42:54;;;;;;;2.85;2.28;;;13.00;99.90;;;;;;4954594;28;20192;-77
2021/07/24 02:45:20;;;;;;;4.22;2.80;;;13.00;99.90;;;;;;4953723;29;20209;-79
2021/07/24 02:47:46;;;;;;;3.33;2.35;;;12.90;99.90;;;;;;4953915;28;20182;-77
2021/07/24 02:50:12;;;;;;;4.45;2.42;;;13.00;99.90;;;;;;4953777;28;20229;-79
2021/07/24 02:52:37;;;;;;;4.00;2.47;;;13.10;99.90;;;;;;4953874;29;20248;-78
2021/07/24 02:55:03;;;;;;;3.00;2.20;;;12.90;99.90;;;;;;4952014;28;20224;-76
2021/07/24 02:57:29;;;;;;;4.28;2.20;;;13.00;99.90;;;;;;4952759;29;20221;-79
2021/07/24 02:59:54;;;;;;;3.55;2.20;;;12.90;99.90;;;;;;4953815;28;20241;-76
2021/07/24 03:02:20;;;;;;;2.45;1.98;;;12.90;99.90;;;;;;4953834;28;20186;-76
2021/07/24 03:04:45;;;;;;;2.75;2.20;;;12.90;99.90;;;;;;4953177;28;21431;-78
2021/07/24 03:07:11;;;;;;;3.33;2.20;;;12.90;99.90;;;;;;4953948;29;20196;-79
2021/07/24 03:09:37;;;;;;;3.90;2.88;;;13.00;99.90;;;;;;4942510;28;20209;-79
2021/07/24 03:12:03;;;;;;;2.25;1.70;;;13.00;99.90;;;;;;4947342;28;20213;-78
2021/07/24 03:14:29;;;;;;;3.10;2.60;;;12.90;99.90;;;;;;4952552;29;20257;-77
2021/07/24 03:16:55;;;;;;;3.80;2.50;;;12.90;99.90;;;;;;4951975;28;20812;-76
2021/07/24 03:19:20;;;;;;;3.55;2.35;;;12.80;99.90;;;;;;4951978;28;20190;-76
2021/07/24 03:21:46;;;;;;;3.33;2.50;;;12.80;99.90;;;;;;4953557;28;20304;-77
2021/07/24 03:24:11;;;;;;;3.45;2.22;;;12.90;99.90;;;;;;4951591;29;21333;-79
2021/07/24 03:26:39;;;;;;;3.70;2.40;;;12.90;99.90;;;;;;4953481;29;20555;-77
2021/07/24 03:29:06;;;;;;;3.38;2.00;;;12.80;99.90;;;;;;4953019;28;20209;-79
2021/07/24 03:31:31;;;;;;;4.18;2.35;;;12.80;99.90;;;;;;4953268;28;20174;-79
2021/07/24 03:33:57;;;;;;;4.22;2.88;;;12.80;99.90;;;;;;4953198;29;20224;-76
2021/07/24 03:36:22;;;;;;;6.25;2.55;;;12.80;99.90;;;;;;4952246;28;20189;-77
2021/07/24 03:38:48;;;;;;;2.50;2.05;;;12.80;99.90;;;;;;4953297;28;20742;-78
2021/07/24 03:41:14;;;;;;;3.83;2.25;;;12.80;99.90;;;;;;4952057;28;20268;-77
2021/07/24 03:43:42;;;;;;;5.00;2.42;;;12.80;99.90;;;;;;4949851;29;20213;-77
2021/07/24 03:46:19;;;;;;;5.90;2.50;;;12.80;99.90;;;;;;4952194;29;20246;-78
2021/07/24 03:48:45;;;;;;;3.42;2.70;;;12.90;99.90;;;;;;4951339;29;20178;-78
2021/07/24 03:51:12;;;;;;;2.85;2.20;;;13.10;99.90;;;;;;4951532;29;20209;-77
2021/07/24 03:53:41;;;;;;;4.15;2.45;;;13.10;99.90;;;;;;4949100;29;20201;-77
2021/07/24 03:56:18;;;;;;;2.83;2.35;;;13.10;99.90;;;;;;4950825;29;20177;-77
2021/07/24 03:58:46;;;;;;;3.80;2.45;;;13.00;99.90;;;;;;4949690;29;20213;-77
2021/07/24 04:01:11;;;;;;;3.08;1.90;;;12.90;99.90;;;;;;4952187;28;20169;-78
2021/07/24 04:03:38;;;;;;;3.55;2.15;;;13.00;99.90;;;;;;4951673;29;20761;-77
2021/07/24 04:06:06;;;;;;;2.70;2.05;;;13.00;99.90;;;;;;4951640;28;20193;-78
2021/07/24 04:08:31;;;;;;;3.33;2.38;;;13.00;99.90;;;;;;4951514;29;20181;-78
2021/07/24 04:10:58;;;;;;;3.13;2.05;;;13.10;99.90;;;;;;4951685;28;20268;-78
2021/07/24 04:13:24;;;;;;;2.70;2.33;;;13.20;99.90;;;;;;4949497;29;20201;-78
2021/07/24 04:15:49;;;;;;;3.22;2.53;;;13.20;99.90;;;;;;4951253;29;20245;-77
2021/07/24 04:18:15;;;;;;;3.15;1.95;;;13.30;99.90;;;;;;4952342;29;20664;-78
2021/07/24 04:20:41;;;;;;;2.92;2.25;;;13.30;99.90;;;;;;4952330;28;20185;-78
2021/07/24 04:23:07;;;;;;;2.80;2.10;;;13.30;99.90;;;;;;4950207;29;20305;-77
2021/07/24 04:25:33;;;;;;;3.03;2.10;;;13.40;99.90;;;;;;4952573;28;20685;-78
2021/07/24 04:27:58;;;;;;;5.72;2.67;;;13.40;99.90;;;;;;4952233;28;20177;-77
2021/07/24 04:30:24;;;;;;;2.75;2.30;;;13.50;99.90;;;;;;4952771;28;20201;-78
2021/07/24 04:32:49;;;;;;;3.10;1.92;;;13.60;99.90;;;;;;4952070;28;20208;-78
2021/07/24 04:35:15;;;;;;;2.95;2.17;;;13.70;99.90;;;;;;4952667;29;20315;-78
2021/07/24 04:37:40;;;;;;;3.65;2.40;;;13.80;99.90;;;;;;4952028;28;20186;-78
2021/07/24 04:40:07;;;;;;;4.63;2.47;;;14.00;99.90;;;;;;4951927;28;20260;-78
2021/07/24 04:42:32;;;;;;;3.38;2.20;;;14.50;99.90;;;;;;4951600;29;20553;-77
2021/07/24 04:44:58;;;;;;;3.40;2.10;;;15.30;99.90;;;;;;4951128;29;20209;-78
2021/07/24 04:47:24;;;;;;;3.40;1.98;;;16.20;99.90;;;;;;4951597;29;20637;-78
2021/07/24 04:49:51;;;;;;;2.45;1.98;;;16.50;99.90;;;;;;4949876;29;20296;-77
2021/07/24 04:52:18;;;;;;;2.70;1.90;;;16.90;99.90;;;;;;4951558;29;20706;-78
2021/07/24 04:54:46;;;;;;;4.22;2.20;;;17.20;99.90;;;;;;4951424;29;20201;-78
2021/07/24 04:57:13;;;;;;;3.33;2.20;;;17.70;99.90;;;;;;4950494;29;20256;-78
2021/07/24 04:59:46;;;;;;;3.55;2.08;;;18.20;99.90;;;;;;4952003;28;20177;-78
2021/07/24 05:02:17;;;;;;;2.65;1.85;;;18.40;99.90;;;;;;4951590;29;20344;-78
2021/07/24 05:04:44;;;;;;;2.78;2.00;;;18.50;99.90;;;;;;4951476;29;20205;-78
2021/07/24 05:07:15;;;;;;;3.10;2.33;;;18.80;99.90;;;;;;4949326;29;20277;-79
2021/07/24 05:09:41;;;;;;;2.63;2.17;;;19.20;99.90;;;;;;4950373;29;20197;-78
2021/07/24 05:12:07;;;;;;;2.30;1.70;;;19.60;99.90;;;;;;4951027;28;20190;-79
2021/07/24 05:14:33;;;;;;;3.08;1.70;;;20.00;99.90;;;;;;4950910;28;20197;-78
2021/07/24 05:17:13;;;;;;;6.20;2.75;;;20.50;99.90;;;;;;4952076;29;20200;-78
2021/07/24 05:19:47;;;;;;;3.28;2.75;;;20.80;99.90;;;;;;4951317;29;20205;-78
2021/07/24 05:22:14;;;;;;;2.97;2.55;;;20.80;99.90;;;;;;4951943;28;20252;-78
2021/07/24 05:24:43;;;;;;;4.13;2.88;;;21.00;99.90;;;;;;4951327;29;20202;-78
2021/07/24 05:27:10;;;;;;;4.22;2.75;;;21.10;99.90;;;;;;4951534;29;20177;-78
2021/07/24 05:29:35;;;;;;;3.70;2.88;;;21.40;99.90;;;;;;4951674;28;20210;-78
2021/07/24 05:32:01;;;;;;;4.05;2.80;;;21.50;99.90;;;;;;4955270;28;20241;-76
2021/07/24 05:34:26;;;;;;;2.47;2.28;;;21.40;99.90;;;;;;4965014;29;20284;-77
2021/07/24 05:36:52;;;;;;;4.00;2.88;;;21.70;99.90;;;;;;4956510;28;20276;-79
2021/07/24 05:39:18;;;;;;;2.67;2.45;;;22.00;99.90;;;;;;4951077;28;20186;-79
2021/07/24 05:41:43;;;;;;;2.80;2.47;;;21.90;99.90;;;;;;4950516;28;20200;-78
2021/07/24 05:44:12;;;;;;;2.55;2.33;;;22.00;99.90;;;;;;4944063;28;20201;-79
2021/07/24 05:46:38;;;;;;;3.35;2.45;;;21.80;99.90;;;;;;4949683;29;20181;-79
2021/07/24 05:49:04;;;;;;;2.70;2.50;;;22.10;99.90;;;;;;4948878;29;20320;-78
2021/07/24 05:51:30;;;;;;;4.25;3.28;;;22.10;99.90;;;;;;4949441;28;20236;-79
2021/07/24 05:53:55;;;;;;;3.15;2.42;;;22.20;99.90;;;;;;4949004;29;20217;-78
2021/07/24 05:56:21;;;;;;;3.50;2.78;;;22.30;99.90;;;;;;4950336;28;20205;-79
2021/07/24 05:58:46;;;;;;;2.95;2.72;;;22.60;99.90;;;;;;4948408;28;20233;-79
2021/07/24 06:01:12;;;;;;;3.53;2.83;;;22.80;99.90;;;;;;4952003;28;20185;-79
2021/07/24 06:03:39;;;;;;;2.97;2.67;;;23.00;99.90;;;;;;4951918;29;20910;-79
2021/07/24 06:06:04;;;;;;;2.78;2.40;;;23.30;99.90;;;;;;4952208;28;20201;-76
2021/07/24 06:08:31;;;;;;;5.55;2.90;;;23.60;99.90;;;;;;4952240;28;20178;-79
2021/07/24 06:11:04;;;;;;;5.30;2.42;;;23.90;99.90;;;;;;4949775;28;20698;-78
2021/07/24 06:13:31;;;;;;;6.60;2.92;;;24.00;99.90;;;;;;4950493;29;20503;-79
2021/07/24 06:15:58;;;;;;;3.30;2.60;;;23.90;99.90;;;;;;4951502;28;20223;-79
2021/07/24 06:18:23;;;;;;;3.75;2.97;;;23.70;99.90;;;;;;4950975;29;20178;-79
2021/07/24 06:20:50;;;;;;;4.00;2.80;;;23.60;99.90;;;;;;4949049;28;20180;-80
2021/07/24 06:23:16;;;;;;;6.07;3.40;;;23.50;99.90;;;;;;4951741;28;21290;-76
2021/07/24 06:25:43;;;;;;;4.35;3.15;;;23.70;99.90;;;;;;4953894;28;20217;-80
2021/07/24 06:28:09;;;;;;;3.67;3.05;;;23.90;99.90;;;;;;4952721;29;20182;-79
2021/07/24 06:30:35;;;;;;;3.78;3.00;;;24.00;99.90;;;;;;4951361;28;20633;-80
2021/07/24 06:33:00;;;;;;;2.92;2.67;;;24.10;99.90;;;;;;4950969;29;20700;-79
2021/07/24 06:35:26;;;;;;;3.90;2.95;;;24.30;99.90;;;;;;4950419;29;20209;-77
2021/07/24 06:37:52;;;;;;;3.90;3.22;;;24.20;99.90;;;;;;4949084;29;20652;-79
2021/07/24 06:40:18;;;;;;;3.80;3.22;;;24.20;99.90;;;;;;4949320;28;20195;-77
2021/07/24 06:42:44;;;;;;;2.97;2.67;;;24.20;99.90;;;;;;4950601;28;20182;-80
2021/07/24 06:45:10;;;;;;;5.80;3.03;;;24.50;99.90;;;;;;4949071;29;20304;-77
2021/07/24 06:47:35;;;;;;;4.05;3.08;;;24.30;99.90;;;;;;4950551;28;20248;-77
2021/07/24 06:50:01;;;;;;;3.83;3.20;;;23.90;99.90;;;;;;4950721;29;20213;-80
2021/07/24 06:52:27;;;;;;;3.45;3.00;;;23.50;99.90;;;;;;4950864;29;20174;-77
2021/07/24 06:54:52;;;;;;;3.65;2.90;;;23.20;99.90;;;;;;4941826;29;20205;-77
2021/07/24 06:57:18;;;;;;;2.83;2.40;;;22.90;99.90;;;;;;4948847;29;20190;-77
2021/07/24 06:59:43;;;;;;;3.13;2.50;;;22.90;99.90;;;;;;4948069;29;20193;-79
2021/07/24 07:02:10;;;;;;;3.67;2.30;;;22.80;99.90;;;;;;4949795;28;20224;-79
2021/07/24 07:04:36;;;;;;;3.20;2.33;;;22.60;99.90;;;;;;4950422;28;20304;-78
2021/07/24 07:07:03;;;;;;;3.53;2.63;;;22.60;99.90;;;;;;4952932;28;20608;-77
2021/07/24 07:09:29;;;;;;;3.33;2.40;;;22.40;99.90;;;;;;4952527;29;20209;-79
2021/07/24 07:11:58;;;;;;;2.65;2.38;;;22.40;99.90;;;;;;4952357;28;20190;-79
2021/07/24 07:14:24;;;;;;;2.40;2.20;;;22.60;99.90;;;;;;4952884;28;20671;-78
2021/07/24 07:16:51;;;;;;;2.65;2.30;;;22.90;99.90;;;;;;4951667;28;20192;-78
2021/07/24 07:19:16;;;;;;;3.03;2.50;;;23.00;99.90;;;;;;4952739;29;20235;-79
2021/07/24 07:21:42;;;;;;;3.78;2.75;;;23.10;99.90;;;;;;4952686;28;20190;-78
2021/07/24 07:24:08;;;;;;;3.15;2.38;;;23.20;99.90;;;;;;4952057;28;20206;-78
2021/07/24 07:26:33;;;;;;;2.58;2.30;;;23.30;99.90;;;;;;4951046;28;20196;-76
2021/07/24 07:29:03;;;;;;;2.67;2.35;;;23.30;99.90;;;;;;4952791;28;20193;-79
2021/07/24 07:31:33;;;;;;;2.83;2.30;;;23.30;99.90;;;;;;4952918;29;20591;-79
2021/07/24 07:34:00;;;;;;;2.78;2.25;;;23.30;99.90;;;;;;4952601;28;20213;-79
2021/07/24 07:36:26;;;;;;;3.30;2.35;;;23.20;99.90;;;;;;4956669;28;20190;-79
2021/07/24 07:38:52;;;;;;;3.40;2.88;;;23.20;99.90;;;;;;4958188;28;20186;-79
2021/07/24 07:41:18;;;;;;;2.88;2.45;;;23.40;99.90;;;;;;4958962;29;20181;-78
2021/07/24 07:43:44;;;;;;;2.63;2.38;;;23.30;99.90;;;;;;4958744;28;20252;-79
2021/07/24 07:46:10;;;;;;;3.33;2.38;;;23.50;99.90;;;;;;4958576;29;20194;-79
2021/07/24 07:48:36;;;;;;;4.30;2.58;;;23.70;99.90;;;;;;4959633;28;20190;-79
2021/07/24 07:51:02;;;;;;;2.83;2.42;;;23.90;99.90;;;;;;4958852;28;20667;-79
2021/07/24 07:53:28;;;;;;;2.20;1.95;;;24.00;99.90;;;;;;4958862;28;20202;-79
2021/07/24 07:55:54;;;;;;;2.30;2.10;;;24.10;99.90;;;;;;4958338;29;20468;-79
2021/07/24 07:58:19;;;;;;;3.65;2.83;;;24.20;99.90;;;;;;4947785;28;20237;-78
2021/07/24 08:00:45;;;;;;;3.47;2.28;;;24.30;99.90;;;;;;4947003;28;20209;-78
2021/07/24 08:03:10;;;;;;;2.75;2.47;;;24.30;99.90;;;;;;4946687;29;20206;-78
2021/07/24 08:05:36;;;;;;;3.58;2.65;;;24.60;99.90;;;;;;4947155;29;20194;-78
2021/07/24 08:08:02;;;;;;;3.60;2.67;;;24.60;99.90;;;;;;4948960;28;20249;-77
2021/07/24 08:10:27;;;;;;;3.65;2.58;;;24.70;99.90;;;;;;4942261;29;20209;-78
2021/07/24 08:12:53;;;;;;;3.15;2.85;;;24.70;99.90;;;;;;4948218;28;20707;-78
2021/07/24 08:15:19;;;;;;;3.53;2.97;;;24.50;99.90;;;;;;4947381;29;20181;-78
2021/07/24 08:17:44;;;;;;;3.47;2.92;;;24.70;99.90;;;;;;4948767;28;20181;-78
2021/07/24 08:20:11;;;;;;;3.58;3.00;;;24.70;99.90;;;;;;4950236;28;20190;-78
2021/07/24 08:22:37;;;;;;;3.35;2.92;;;24.90;99.90;;;;;;4951161;28;20200;-78
2021/07/24 08:25:04;;;;;;;4.10;3.03;;;25.00;99.90;;;;;;4945952;28;20599;-78
2021/07/24 08:27:31;;;;;;;3.33;3.03;;;25.30;99.90;;;;;;4947527;29;20189;-78
2021/07/24 08:29:57;;;;;;;3.65;3.03;;;25.20;99.90;;;;;;4946294;29;20209;-78
2021/07/24 08:32:22;;;;;;;4.50;3.30;;;25.00;99.90;;;;;;4946054;29;20216;-78
2021/07/24 08:34:50;;;;;;;3.28;2.80;;;25.20;99.90;;;;;;4947010;28;20232;-78
2021/07/24 08:37:16;;;;;;;3.75;3.05;;;25.40;99.90;;;;;;4948093;28;20181;-77
2021/07/24 08:39:41;;;;;;;5.50;3.47;;;25.50;99.90;;;;;;4947007;29;20186;-78
2021/07/24 08:42:07;;;;;;;4.68;3.17;;;25.60;99.90;;;;;;4951635;28;20189;-78
2021/07/24 08:44:38;;;;;;;5.78;3.70;;;25.70;99.90;;;;;;4948258;28;20213;-78
2021/07/24 08:47:04;;;;;;;4.15;3.67;;;25.90;99.90;;;;;;4947374;29;20185;-78
2021/07/24 08:49:30;;;;;;;7.63;3.72;;;26.00;99.90;;;;;;4947755;28;20599;-78
2021/07/24 08:51:58;;;;;;;4.45;3.72;;;26.00;99.90;;;;;;4948055;28;20294;-77
2021/07/24 08:54:24;;;;;;;4.57;3.65;;;26.10;99.90;;;;;;4945706;29;21053;-78
2021/07/24 08:56:50;;;;;;;4.63;3.65;;;26.20;99.90;;;;;;4946223;28;20304;-78
2021/07/24 08:59:17;;;;;;;4.43;3.80;;;26.30;99.90;;;;;;4948070;28;20201;-78
2021/07/24 09:01:53;;;;;;;5.50;4.28;;;26.50;99.90;;;;;;4951819;28;20213;-78
2021/07/24 09:04:23;;;;;;;4.13;3.72;;;26.60;99.90;;;;;;4950848;29;20200;-78
2021/07/24 09:06:57;;;;;;;6.88;4.13;;;26.50;99.90;;;;;;4951553;29;20232;-78
2021/07/24 09:09:23;;;;;;;4.57;3.38;;;26.60;99.90;;;;;;4947423;29;20261;-78
2021/07/24 09:11:49;;;;;;;5.05;3.92;;;26.60;99.90;;;;;;4950589;29;20182;-78
2021/07/24 09:14:15;;;;;;;5.18;4.03;;;26.80;99.90;;;;;;4950033;29;20201;-78
2021/07/24 09:16:41;;;;;;;7.75;4.32;;;26.90;99.90;;;;;;4947442;28;20473;-78
2021/07/24 09:19:08;;;;;;;5.70;4.38;;;26.90;99.90;;;;;;4947945;28;20190;-78
2021/07/24 09:21:36;;;;;;;5.97;4.57;;;26.90;99.90;;;;;;4947967;28;20653;-78
2021/07/24 09:24:23;;;;;;;5.05;4.22;;;27.10;99.90;;;;;;4948485;28;20249;-77
2021/07/24 09:26:48;;;;;;;4.68;4.13;;;27.10;99.90;;;;;;4951540;29;20182;-78
2021/07/24 09:29:16;;;;;;;4.30;3.90;;;26.90;99.90;;;;;;4955595;28;20675;-78
2021/07/24 09:31:43;;;;;;;5.80;5.00;;;27.00;99.90;;;;;;4958000;29;20552;-78
2021/07/24 09:34:10;;;;;;;7.32;4.72;;;27.10;99.90;;;;;;4959683;28;20313;-78
2021/07/24 09:36:37;;;;;;;5.10;4.47;;;27.10;99.90;;;;;;4961070;29;20216;-78
2021/07/24 09:39:13;;;;;;;6.95;4.32;;;27.20;99.90;;;;;;4953313;28;20193;-78
2021/07/24 09:41:42;;;;;;;6.70;4.93;;;27.40;99.90;;;;;;4953315;29;20180;-78
2021/07/24 09:44:09;;;;;;;4.95;4.45;;;27.40;99.90;;;;;;4953104;28;20208;-78
2021/07/24 09:46:35;;;;;;;5.88;4.90;;;27.60;99.90;;;;;;4955614;29;20181;-79
2021/07/24 09:49:16;;;;;;;6.45;4.57;;;27.70;99.90;;;;;;4963088;28;20186;-79
2021/07/24 09:51:44;;;;;;;6.32;4.80;;;27.80;99.90;;;;;;4961063;29;20182;-78
2021/07/24 09:54:28;;;;;;;5.57;4.88;;;27.60;99.90;;;;;;4960077;29;20256;-78
2021/07/24 09:56:54;;;;;;;5.57;4.75;;;27.50;99.90;;;;;;4959095;29;20182;-79
2021/07/24 09:59:28;;;;;;;5.57;5.00;;;27.60;99.90;;;;;;4954733;28;20181;-78
2021/07/24 10:01:58;;;;;;;5.85;4.80;;;27.80;99.90;;;;;;4949645;28;20213;-78
2021/07/24 10:04:37;;;;;;;5.63;4.95;;;27.60;99.90;;;;;;4959150;29;20221;-78
2021/07/24 10:07:05;;;;;;;6.20;5.35;;;27.70;99.90;;;;;;4957949;28;20240;-78
2021/07/24 10:09:33;;;;;;;6.35;5.05;;;27.80;99.90;;;;;;4958427;28;20201;-77
2021/07/24 10:12:04;;;;;;;6.18;5.47;;;27.90;99.90;;;;;;4959428;29;20181;-78
2021/07/24 10:14:30;;;;;;;6.22;5.07;;;27.90;99.90;;;;;;5856313;23;20203;-78
2021/07/24 10:16:57;;;;;;;5.85;5.18;;;28.10;99.90;;;;;;4940814;29;20206;-78
2021/07/24 10:19:25;;;;;;;6.75;5.63;;;28.20;99.90;;;;;;4934755;28;20210;-78
2021/07/24 10:21:52;;;;;;;6.63;5.65;;;28.20;99.90;;;;;;4930457;29;20272;-78
2021/07/24 10:24:18;;;;;;;7.30;5.38;;;28.30;99.90;;;;;;4939684;29;20190;-78
2021/07/24 10:27:10;;;;;;;6.47;5.88;;;28.30;99.90;;;;;;4940538;29;20216;-78
2021/07/24 10:29:41;;;;;;;7.90;6.03;;;28.40;99.90;;;;;;4936050;29;20210;-79
2021/07/24 10:32:12;;;;;;;6.70;6.00;;;28.60;99.90;;;;;;4937004;29;20185;-78
2021/07/24 10:34:46;;;;;;;8.23;6.00;;;28.60;99.90;;;;;;4938121;29;20210;-78
2021/07/24 10:37:34;;;;;;;6.80;5.53;;;28.80;99.90;;;;;;4941109;28;20226;-78
2021/07/24 10:40:16;;;;;;;6.82;5.72;;;28.80;99.30;;;;;;4932500;29;20193;-79
2021/07/24 10:42:44;;;;;;;8.43;6.35;;;28.70;99.90;;;;;;4938149;29;20445;-78
2021/07/24 10:45:32;;;;;;;6.05;5.20;;;28.70;99.20;;;;;;4935886;28;20206;-79
2021/07/24 10:48:13;;;;;;;5.55;5.00;;;28.80;99.10;;;;;;4931788;29;20525;-78
2021/07/24 10:50:54;;;;;;;6.72;5.50;;;28.50;99.00;;;;;;4937657;29;20213;-78
2021/07/24 10:53:24;;;;;;;6.93;5.75;;;28.20;99.20;;;;;;4934883;28;20200;-78
2021/07/24 10:55:51;;;;;;;6.07;5.32;;;28.20;99.20;;;;;;4935715;29;20296;-79
2021/07/24 10:58:25;;;;;;;6.13;5.50;;;28.50;99.10;;;;;;4939813;28;20611;-79
2021/07/24 11:00:55;;;;;;;6.40;5.45;;;28.90;98.90;;;;;;4938853;29;20229;-79
2021/07/24 11:03:46;;;;;;;7.38;5.75;;;29.10;97.60;;;;;;4935821;29;20193;-80
2021/07/24 11:06:21;;;;;;;6.13;4.85;;;29.40;97.90;;;;;;4937387;29;20626;-79
2021/07/24 11:09:01;;;;;;;6.15;5.10;;;29.50;97.20;;;;;;4952880;28;21135;-78
2021/07/24 11:11:43;;;;;;;4.97;4.45;;;29.50;97.40;;;;;;4935066;29;20197;-78
2021/07/24 11:14:38;;;;;;;5.82;4.60;;;29.60;97.00;;;;;;4933580;28;20230;-78
2021/07/24 11:17:11;;;;;;;5.53;4.63;;;29.60;96.50;;;;;;4941147;28;20198;-79
2021/07/24 11:19:44;;;;;;;6.03;4.95;;;29.50;96.00;;;;;;4937089;28;20182;-79
2021/07/24 11:22:14;;;;;;;10.38;4.65;;;29.60;96.20;;;;;;4942396;28;20220;-79
2021/07/24 11:24:42;;;;;;;5.82;5.05;;;29.70;95.50;;;;;;4936618;28;20840;-78
2021/07/24 11:27:08;;;;;;;8.38;5.72;;;29.80;94.70;;;;;;4934440;28;20190;-79
2021/07/24 11:29:34;;;;;;;6.90;5.43;;;29.70;95.00;;;;;;4933177;29;20490;-78
2021/07/24 11:32:03;;;;;;;6.47;5.22;;;29.60;94.00;;;;;;4937441;29;20190;-79
2021/07/24 11:34:32;;;;;;;5.38;4.38;;;29.80;95.30;;;;;;4937213;28;20216;-78
2021/07/24 11:36:59;;;;;;;5.95;4.60;;;30.10;94.90;;;;;;4936590;29;20344;-77
2021/07/24 11:39:30;;;;;;;6.05;4.93;;;30.20;94.10;;;;;;4930641;28;20524;-79
2021/07/24 11:41:56;;;;;;;5.40;4.60;;;30.20;93.10;;;;;;4934317;29;20298;-79
2021/07/24 11:44:29;;;;;;;8.60;4.50;;;30.00;94.10;;;;;;4941509;28;20181;-78
2021/07/24 11:46:58;;;;;;;5.57;4.80;;;30.00;93.70;;;;;;4934899;29;20675;-78
2021/07/24 11:49:25;;;;;;;5.00;4.50;;;30.10;93.20;;;;;;4937884;29;20549;-78
2021/07/24 11:51:50;;;;;;;8.88;5.05;;;30.20;93.50;;;;;;4937587;29;20181;-78
2021/07/24 11:54:33;;;;;;;7.10;4.70;;;30.50;93.90;;;;;;4937984;28;20189;-78
2021/07/24 11:57:00;;;;;;;5.13;4.40;;;30.70;93.00;;;;;;4933500;29;20182;-78
2021/07/24 11:59:31;;;;;;;5.75;5.13;;;30.90;91.60;;;;;;4935866;28;20281;-78
2021/07/24 12:01:57;;;;;;;6.57;4.93;;;30.80;91.30;;;;;;4937593;28;20228;-79
2021/07/24 12:04:23;;;;;;;6.60;4.57;;;30.70;90.80;;;;;;4933643;28;20606;-79
2021/07/24 12:06:57;;;;;;;5.25;4.75;;;30.70;91.00;;;;;;4935234;29;20192;-77
2021/07/24 12:09:23;;;;;;;9.95;4.88;;;30.50;91.30;;;;;;4939285;28;20225;-78
2021/07/24 12:11:53;;;;;;;6.10;4.57;;;30.30;91.50;;;;;;4936115;28;20188;-78
2021/07/24 12:14:24;;;;;;;7.72;5.03;;;30.40;91.60;;;;;;4932251;28;20201;-79
2021/07/24 12:17:05;;;;;;;5.28;4.35;;;30.50;91.40;;;;;;4929773;29;20284;-79
2021/07/24 12:19:49;;;;;;;5.38;4.00;;;30.50;90.90;;;;;;4931486;29;20654;-79
2021/07/24 12:22:21;;;;;;;5.32;4.45;;;30.50;90.80;;;;;;4934435;29;20670;-78
2021/07/24 12:24:51;;;;;;;5.00;3.90;;;30.30;90.80;;;;;;4925521;29;20215;-78
2021/07/24 12:27:23;;;;;;;5.38;4.05;;;30.10;91.00;;;;;;4932694;29;20190;-76
2021/07/24 12:29:56;;;;;;;4.53;3.90;;;30.00;91.20;;;;;;4935738;29;20683;-75
2021/07/24 12:32:23;;;;;;;5.43;3.88;;;30.00;90.70;;;;;;4934165;29;21320;-78
2021/07/24 12:34:49;;;;;;;4.32;3.80;;;30.30;91.30;;;;;;4930074;29;20202;-78
2021/07/24 12:37:32;;;;;;;4.88;3.90;;;30.60;91.30;;;;;;4939579;28;20324;-77
2021/07/24 12:40:15;;;;;;;5.05;4.13;;;30.70;90.40;;;;;;4937250;29;20182;-78
2021/07/24 12:42:41;;;;;;;4.50;3.75;;;30.80;90.40;;;;;;4937435;29;20832;-77
2021/07/24 12:45:20;;;;;;;6.75;4.15;;;30.90;89.50;;;;;;4936105;28;20214;-76
2021/07/24 12:47:46;;;;;;;5.90;3.83;;;31.00;90.10;;;;;;4933665;29;20197;-75
2021/07/24 12:50:14;;;;;;;5.00;4.07;;;31.10;88.30;;;;;;4937277;28;20209;-72
2021/07/24 12:52:48;;;;;;;5.78;3.65;;;31.10;88.40;;;;;;4940378;29;20223;-75
2021/07/24 12:55:18;;;;;;;4.63;3.92;;;31.20;88.80;;;;;;4935533;28;20205;-76